sensor_id;sensor_type;location;lat;lon;timestamp;temperature;humidity
28374;DHT22;15616;40.148;-102.718;2023-05-14T00:01:53;22.20;54.70
28374;DHT22;15616;40.148;-102.718;2023-05-14T00:04:19;22.20;54.60
28374;DHT22;15616;40.148;-102.718;2023-05-14T00:06:45;22.20;54.70
28374;DHT22;15616;40.148;-102.718;2023-05-14T00:09:10;22.20;54.70
28374;DHT22;15616;40.148;-102.718;2023-05-14T00:11:39;22.20;54.70
28374;DHT22;15616;40.148;-102.718;2023-05-14T00:14:05;22.20;54.80
28374;DHT22;15616;40.148;-102.718;2023-05-14T00:16:30;22.10;54.70
28374;DHT22;15616;40.148;-102.718;2023-05-14T00:18:56;22.10;54.70
28374;DHT22;15616;40.148;-102.718;2023-05-14T00:21:22;22.10;54.70
28374;DHT22;15616;40.148;-102.718;2023-05-14T00:23:47;22.10;54.80
28374;DHT22;15616;40.148;-102.718;2023-05-14T00:26:13;22.10;54.80
28374;DHT22;15616;40.148;-102.718;2023-05-14T00:28:39;22.10;54.80
28374;DHT22;15616;40.148;-102.718;2023-05-14T00:31:04;22.10;54.80
28374;DHT22;15616;40.148;-102.718;2023-05-14T00:33:30;22.10;54.80
28374;DHT22;15616;40.148;-102.718;2023-05-14T00:35:56;22.10;54.80
28374;DHT22;15616;40.148;-102.718;2023-05-14T00:38:22;22.10;54.80
28374;DHT22;15616;40.148;-102.718;2023-05-14T00:40:48;22.10;54.80
28374;DHT22;15616;40.148;-102.718;2023-05-14T00:43:18;22.10;54.80
28374;DHT22;15616;40.148;-102.718;2023-05-14T00:45:44;22.10;54.80
28374;DHT22;15616;40.148;-102.718;2023-05-14T00:48:10;22.10;54.80
28374;DHT22;15616;40.148;-102.718;2023-05-14T00:50:36;22.10;54.80
28374;DHT22;15616;40.148;-102.718;2023-05-14T00:53:01;22.10;54.80
28374;DHT22;15616;40.148;-102.718;2023-05-14T00:55:28;22.00;54.80
28374;DHT22;15616;40.148;-102.718;2023-05-14T00:57:54;22.00;54.80
28374;DHT22;15616;40.148;-102.718;2023-05-14T01:00:20;22.00;54.90
28374;DHT22;15616;40.148;-102.718;2023-05-14T01:02:46;22.00;54.90
28374;DHT22;15616;40.148;-102.718;2023-05-14T01:05:12;22.10;54.90
28374;DHT22;15616;40.148;-102.718;2023-05-14T01:15:20;22.00;54.90
28374;DHT22;15616;40.148;-102.718;2023-05-14T01:17:52;22.10;55.00
28374;DHT22;15616;40.148;-102.718;2023-05-14T01:20:20;22.00;55.00
28374;DHT22;15616;40.148;-102.718;2023-05-14T01:22:45;22.00;55.00
28374;DHT22;15616;40.148;-102.718;2023-05-14T01:25:11;22.00;55.00
28374;DHT22;15616;40.148;-102.718;2023-05-14T01:32:28;22.00;55.00
28374;DHT22;15616;40.148;-102.718;2023-05-14T01:34:55;22.00;55.10
28374;DHT22;15616;40.148;-102.718;2023-05-14T01:37:21;22.00;55.10
28374;DHT22;15616;40.148;-102.718;2023-05-14T01:39:47;22.00;55.80
28374;DHT22;15616;40.148;-102.718;2023-05-14T01:42:13;21.90;55.10
28374;DHT22;15616;40.148;-102.718;2023-05-14T01:44:39;21.90;55.20
28374;DHT22;15616;40.148;-102.718;2023-05-14T01:47:05;22.00;55.20
28374;DHT22;15616;40.148;-102.718;2023-05-14T01:49:31;21.90;55.20
28374;DHT22;15616;40.148;-102.718;2023-05-14T01:51:56;21.90;55.20
28374;DHT22;15616;40.148;-102.718;2023-05-14T01:54:22;21.90;55.20
28374;DHT22;15616;40.148;-102.718;2023-05-14T01:56:48;21.90;55.20
28374;DHT22;15616;40.148;-102.718;2023-05-14T01:59:13;21.90;55.30
28374;DHT22;15616;40.148;-102.718;2023-05-14T02:01:40;21.90;55.30
28374;DHT22;15616;40.148;-102.718;2023-05-14T02:04:05;21.90;55.30
28374;DHT22;15616;40.148;-102.718;2023-05-14T02:06:31;21.90;55.30
28374;DHT22;15616;40.148;-102.718;2023-05-14T02:08:57;21.90;55.30
28374;DHT22;15616;40.148;-102.718;2023-05-14T02:11:22;21.90;55.30
28374;DHT22;15616;40.148;-102.718;2023-05-14T02:13:48;21.90;55.30
28374;DHT22;15616;40.148;-102.718;2023-05-14T02:16:14;21.90;55.30
28374;DHT22;15616;40.148;-102.718;2023-05-14T02:18:39;21.90;55.30
28374;DHT22;15616;40.148;-102.718;2023-05-14T02:21:05;21.90;55.40
28374;DHT22;15616;40.148;-102.718;2023-05-14T02:23:31;21.90;55.30
28374;DHT22;15616;40.148;-102.718;2023-05-14T02:25:56;21.90;55.30
28374;DHT22;15616;40.148;-102.718;2023-05-14T02:28:22;21.80;55.30
28374;DHT22;15616;40.148;-102.718;2023-05-14T02:30:48;21.90;55.40
28374;DHT22;15616;40.148;-102.718;2023-05-14T02:33:13;21.90;55.40
28374;DHT22;15616;40.148;-102.718;2023-05-14T02:35:39;21.80;55.30
28374;DHT22;15616;40.148;-102.718;2023-05-14T02:38:05;21.80;56.10
28374;DHT22;15616;40.148;-102.718;2023-05-14T02:40:31;21.80;55.40
28374;DHT22;15616;40.148;-102.718;2023-05-14T02:42:56;21.80;55.40
28374;DHT22;15616;40.148;-102.718;2023-05-14T02:45:22;21.80;55.40
28374;DHT22;15616;40.148;-102.718;2023-05-14T02:47:47;21.80;55.40
28374;DHT22;15616;40.148;-102.718;2023-05-14T02:50:13;21.80;55.40
28374;DHT22;15616;40.148;-102.718;2023-05-14T02:52:39;21.80;55.40
28374;DHT22;15616;40.148;-102.718;2023-05-14T02:55:05;21.80;55.40
28374;DHT22;15616;40.148;-102.718;2023-05-14T02:57:31;21.80;55.40
28374;DHT22;15616;40.148;-102.718;2023-05-14T02:59:56;21.80;55.40
28374;DHT22;15616;40.148;-102.718;2023-05-14T03:02:22;21.80;55.50
28374;DHT22;15616;40.148;-102.718;2023-05-14T03:04:48;21.80;55.50
28374;DHT22;15616;40.148;-102.718;2023-05-14T03:07:14;21.80;55.50
28374;DHT22;15616;40.148;-102.718;2023-05-14T03:09:39;21.80;55.50
28374;DHT22;15616;40.148;-102.718;2023-05-14T03:12:06;21.80;55.50
28374;DHT22;15616;40.148;-102.718;2023-05-14T03:14:32;21.80;55.50
28374;DHT22;15616;40.148;-102.718;2023-05-14T03:16:57;21.80;55.40
28374;DHT22;15616;40.148;-102.718;2023-05-14T03:19:23;21.80;55.50
28374;DHT22;15616;40.148;-102.718;2023-05-14T03:21:49;21.80;55.50
28374;DHT22;15616;40.148;-102.718;2023-05-14T03:24:14;21.80;55.50
28374;DHT22;15616;40.148;-102.718;2023-05-14T03:26:40;21.80;55.50
28374;DHT22;15616;40.148;-102.718;2023-05-14T03:29:06;21.80;55.50
28374;DHT22;15616;40.148;-102.718;2023-05-14T03:31:31;21.80;55.50
28374;DHT22;15616;40.148;-102.718;2023-05-14T03:33:57;21.80;55.50
28374;DHT22;15616;40.148;-102.718;2023-05-14T03:36:23;21.80;55.50
28374;DHT22;15616;40.148;-102.718;2023-05-14T03:38:48;21.80;55.50
28374;DHT22;15616;40.148;-102.718;2023-05-14T03:41:14;21.80;55.50
28374;DHT22;15616;40.148;-102.718;2023-05-14T03:43:40;21.80;55.60
28374;DHT22;15616;40.148;-102.718;2023-05-14T03:46:05;21.80;55.60
28374;DHT22;15616;40.148;-102.718;2023-05-14T03:48:31;21.80;55.60
28374;DHT22;15616;40.148;-102.718;2023-05-14T03:50:57;21.80;55.60
28374;DHT22;15616;40.148;-102.718;2023-05-14T03:53:22;21.80;55.60
28374;DHT22;15616;40.148;-102.718;2023-05-14T03:55:48;21.80;55.60
28374;DHT22;15616;40.148;-102.718;2023-05-14T03:58:14;21.80;55.60
28374;DHT22;15616;40.148;-102.718;2023-05-14T04:00:40;21.80;56.20
28374;DHT22;15616;40.148;-102.718;2023-05-14T04:03:06;21.80;55.60
28374;DHT22;15616;40.148;-102.718;2023-05-14T04:05:33;21.80;55.50
28374;DHT22;15616;40.148;-102.718;2023-05-14T04:07:59;21.80;55.50
28374;DHT22;15616;40.148;-102.718;2023-05-14T04:10:25;21.80;55.50
28374;DHT22;15616;40.148;-102.718;2023-05-14T04:12:50;21.80;55.50
28374;DHT22;15616;40.148;-102.718;2023-05-14T04:15:16;21.80;56.20
28374;DHT22;15616;40.148;-102.718;2023-05-14T04:17:42;21.80;55.40
28374;DHT22;15616;40.148;-102.718;2023-05-14T04:20:08;21.80;55.50
28374;DHT22;15616;40.148;-102.718;2023-05-14T04:22:34;21.80;55.40
28374;DHT22;15616;40.148;-102.718;2023-05-14T04:24:59;21.80;55.40
28374;DHT22;15616;40.148;-102.718;2023-05-14T04:27:25;21.80;55.40
28374;DHT22;15616;40.148;-102.718;2023-05-14T04:29:51;21.80;55.40
28374;DHT22;15616;40.148;-102.718;2023-05-14T04:32:16;21.80;55.30
28374;DHT22;15616;40.148;-102.718;2023-05-14T04:34:42;21.80;55.40
28374;DHT22;15616;40.148;-102.718;2023-05-14T04:37:08;21.80;55.40
28374;DHT22;15616;40.148;-102.718;2023-05-14T04:39:34;21.80;55.40
28374;DHT22;15616;40.148;-102.718;2023-05-14T04:42:00;21.80;55.40
28374;DHT22;15616;40.148;-102.718;2023-05-14T04:44:25;21.80;55.40
28374;DHT22;15616;40.148;-102.718;2023-05-14T04:46:51;21.80;55.40
28374;DHT22;15616;40.148;-102.718;2023-05-14T04:49:17;21.80;55.40
28374;DHT22;15616;40.148;-102.718;2023-05-14T04:51:42;21.80;55.50
28374;DHT22;15616;40.148;-102.718;2023-05-14T04:54:08;21.80;55.40
28374;DHT22;15616;40.148;-102.718;2023-05-14T04:56:34;21.80;55.50
28374;DHT22;15616;40.148;-102.718;2023-05-14T04:59:00;21.70;55.50
28374;DHT22;15616;40.148;-102.718;2023-05-14T05:01:25;21.80;55.50
28374;DHT22;15616;40.148;-102.718;2023-05-14T05:03:51;21.80;55.50
28374;DHT22;15616;40.148;-102.718;2023-05-14T05:06:17;21.80;55.50
28374;DHT22;15616;40.148;-102.718;2023-05-14T05:08:43;21.80;55.50
28374;DHT22;15616;40.148;-102.718;2023-05-14T05:11:09;21.80;55.40
28374;DHT22;15616;40.148;-102.718;2023-05-14T05:13:34;21.80;55.50
28374;DHT22;15616;40.148;-102.718;2023-05-14T05:16:00;21.80;55.50
28374;DHT22;15616;40.148;-102.718;2023-05-14T05:18:26;21.70;55.50
28374;DHT22;15616;40.148;-102.718;2023-05-14T05:20:51;21.70;55.50
28374;DHT22;15616;40.148;-102.718;2023-05-14T05:23:17;21.70;55.50
28374;DHT22;15616;40.148;-102.718;2023-05-14T05:25:43;21.70;55.50
28374;DHT22;15616;40.148;-102.718;2023-05-14T05:28:08;21.80;55.50
28374;DHT22;15616;40.148;-102.718;2023-05-14T05:30:34;21.80;55.50
28374;DHT22;15616;40.148;-102.718;2023-05-14T05:33:00;21.80;55.50
28374;DHT22;15616;40.148;-102.718;2023-05-14T05:35:26;21.80;55.50
28374;DHT22;15616;40.148;-102.718;2023-05-14T05:37:51;21.70;55.40
28374;DHT22;15616;40.148;-102.718;2023-05-14T05:40:17;21.70;55.50
28374;DHT22;15616;40.148;-102.718;2023-05-14T05:42:43;21.70;55.40
28374;DHT22;15616;40.148;-102.718;2023-05-14T05:45:09;21.70;55.50
28374;DHT22;15616;40.148;-102.718;2023-05-14T05:47:35;21.80;55.50
28374;DHT22;15616;40.148;-102.718;2023-05-14T05:50:00;21.80;55.50
28374;DHT22;15616;40.148;-102.718;2023-05-14T05:52:26;21.70;55.50
28374;DHT22;15616;40.148;-102.718;2023-05-14T05:54:51;21.80;55.50
28374;DHT22;15616;40.148;-102.718;2023-05-14T05:57:17;21.80;55.50
28374;DHT22;15616;40.148;-102.718;2023-05-14T05:59:43;21.70;55.50
28374;DHT22;15616;40.148;-102.718;2023-05-14T06:02:09;21.80;55.50
28374;DHT22;15616;40.148;-102.718;2023-05-14T06:04:34;21.80;55.60
28374;DHT22;15616;40.148;-102.718;2023-05-14T06:07:00;21.80;55.60
28374;DHT22;15616;40.148;-102.718;2023-05-14T06:09:25;21.80;55.50
28374;DHT22;15616;40.148;-102.718;2023-05-14T06:11:51;21.80;55.50
28374;DHT22;15616;40.148;-102.718;2023-05-14T06:14:17;21.80;55.40
28374;DHT22;15616;40.148;-102.718;2023-05-14T06:16:43;21.80;55.40
28374;DHT22;15616;40.148;-102.718;2023-05-14T06:19:08;21.80;55.40
28374;DHT22;15616;40.148;-102.718;2023-05-14T06:21:34;21.80;55.40
28374;DHT22;15616;40.148;-102.718;2023-05-14T06:24:00;21.80;55.40
28374;DHT22;15616;40.148;-102.718;2023-05-14T06:26:25;21.80;55.40
28374;DHT22;15616;40.148;-102.718;2023-05-14T06:28:51;21.80;55.40
28374;DHT22;15616;40.148;-102.718;2023-05-14T06:31:17;21.80;55.40
28374;DHT22;15616;40.148;-102.718;2023-05-14T06:33:43;21.80;55.40
28374;DHT22;15616;40.148;-102.718;2023-05-14T06:36:09;21.80;55.40
28374;DHT22;15616;40.148;-102.718;2023-05-14T06:38:35;21.80;55.40
28374;DHT22;15616;40.148;-102.718;2023-05-14T06:41:01;21.80;55.40
28374;DHT22;15616;40.148;-102.718;2023-05-14T06:43:27;21.80;55.40
28374;DHT22;15616;40.148;-102.718;2023-05-14T06:45:53;21.80;55.40
28374;DHT22;15616;40.148;-102.718;2023-05-14T06:48:19;21.80;55.40
28374;DHT22;15616;40.148;-102.718;2023-05-14T06:50:45;21.80;55.40
28374;DHT22;15616;40.148;-102.718;2023-05-14T06:53:11;21.80;55.40
28374;DHT22;15616;40.148;-102.718;2023-05-14T06:55:36;21.80;55.50
28374;DHT22;15616;40.148;-102.718;2023-05-14T06:58:05;21.80;55.40
28374;DHT22;15616;40.148;-102.718;2023-05-14T07:00:30;21.80;55.40
28374;DHT22;15616;40.148;-102.718;2023-05-14T07:02:56;21.80;55.40
28374;DHT22;15616;40.148;-102.718;2023-05-14T07:05:23;21.80;55.40
28374;DHT22;15616;40.148;-102.718;2023-05-14T07:07:48;21.80;55.40
28374;DHT22;15616;40.148;-102.718;2023-05-14T07:10:14;21.80;56.10
28374;DHT22;15616;40.148;-102.718;2023-05-14T07:12:40;21.80;55.40
28374;DHT22;15616;40.148;-102.718;2023-05-14T07:15:05;21.80;55.40
28374;DHT22;15616;40.148;-102.718;2023-05-14T07:17:31;21.80;55.40
28374;DHT22;15616;40.148;-102.718;2023-05-14T07:19:57;21.80;55.40
28374;DHT22;15616;40.148;-102.718;2023-05-14T07:22:23;21.80;55.30
28374;DHT22;15616;40.148;-102.718;2023-05-14T07:24:49;21.80;55.40
28374;DHT22;15616;40.148;-102.718;2023-05-14T07:27:15;21.80;55.40
28374;DHT22;15616;40.148;-102.718;2023-05-14T07:29:41;21.80;55.30
28374;DHT22;15616;40.148;-102.718;2023-05-14T07:32:07;21.80;55.40
28374;DHT22;15616;40.148;-102.718;2023-05-14T07:34:33;21.80;55.30
28374;DHT22;15616;40.148;-102.718;2023-05-14T07:36:59;21.80;55.40
28374;DHT22;15616;40.148;-102.718;2023-05-14T07:39:25;21.80;55.40
28374;DHT22;15616;40.148;-102.718;2023-05-14T07:41:51;21.80;55.40
28374;DHT22;15616;40.148;-102.718;2023-05-14T07:44:19;21.80;55.40
28374;DHT22;15616;40.148;-102.718;2023-05-14T07:46:45;21.80;55.40
28374;DHT22;15616;40.148;-102.718;2023-05-14T07:49:11;21.80;55.40
28374;DHT22;15616;40.148;-102.718;2023-05-14T07:51:37;21.80;55.40
28374;DHT22;15616;40.148;-102.718;2023-05-14T07:54:02;21.80;55.30
28374;DHT22;15616;40.148;-102.718;2023-05-14T07:56:28;21.80;55.40
28374;DHT22;15616;40.148;-102.718;2023-05-14T07:58:55;21.80;55.40
28374;DHT22;15616;40.148;-102.718;2023-05-14T08:01:21;21.80;55.40
28374;DHT22;15616;40.148;-102.718;2023-05-14T08:03:47;21.80;55.30
28374;DHT22;15616;40.148;-102.718;2023-05-14T08:06:12;21.80;55.30
28374;DHT22;15616;40.148;-102.718;2023-05-14T08:08:38;21.90;55.30
28374;DHT22;15616;40.148;-102.718;2023-05-14T08:11:04;21.90;55.30
28374;DHT22;15616;40.148;-102.718;2023-05-14T08:13:29;21.90;56.00
28374;DHT22;15616;40.148;-102.718;2023-05-14T08:15:55;21.80;55.30
28374;DHT22;15616;40.148;-102.718;2023-05-14T08:18:21;21.90;55.30
28374;DHT22;15616;40.148;-102.718;2023-05-14T08:20:47;21.90;55.30
28374;DHT22;15616;40.148;-102.718;2023-05-14T08:23:12;21.90;55.30
28374;DHT22;15616;40.148;-102.718;2023-05-14T08:25:38;21.90;55.30
28374;DHT22;15616;40.148;-102.718;2023-05-14T08:28:04;21.90;55.20
28374;DHT22;15616;40.148;-102.718;2023-05-14T08:30:30;21.90;55.20
28374;DHT22;15616;40.148;-102.718;2023-05-14T08:32:56;21.90;55.30
28374;DHT22;15616;40.148;-102.718;2023-05-14T08:35:22;21.90;55.30
28374;DHT22;15616;40.148;-102.718;2023-05-14T08:37:48;22.00;55.30
28374;DHT22;15616;40.148;-102.718;2023-05-14T08:40:14;21.90;55.20
28374;DHT22;15616;40.148;-102.718;2023-05-14T08:42:40;21.90;55.20
28374;DHT22;15616;40.148;-102.718;2023-05-14T08:45:12;21.90;55.20
28374;DHT22;15616;40.148;-102.718;2023-05-14T08:47:41;21.90;55.30
28374;DHT22;15616;40.148;-102.718;2023-05-14T08:50:07;21.90;55.20
28374;DHT22;15616;40.148;-102.718;2023-05-14T08:52:33;21.90;55.20
28374;DHT22;15616;40.148;-102.718;2023-05-14T08:54:59;21.90;55.20
28374;DHT22;15616;40.148;-102.718;2023-05-14T08:57:25;21.90;55.20
28374;DHT22;15616;40.148;-102.718;2023-05-14T08:59:52;21.90;55.20
28374;DHT22;15616;40.148;-102.718;2023-05-14T09:02:26;21.90;55.20
28374;DHT22;15616;40.148;-102.718;2023-05-14T09:04:56;21.90;55.20
28374;DHT22;15616;40.148;-102.718;2023-05-14T09:07:22;21.90;55.20
28374;DHT22;15616;40.148;-102.718;2023-05-14T09:09:48;21.90;55.20
28374;DHT22;15616;40.148;-102.718;2023-05-14T09:12:14;22.00;55.20
28374;DHT22;15616;40.148;-102.718;2023-05-14T09:14:39;21.90;55.10
28374;DHT22;15616;40.148;-102.718;2023-05-14T09:17:05;21.90;55.20
28374;DHT22;15616;40.148;-102.718;2023-05-14T09:19:32;22.00;55.20
28374;DHT22;15616;40.148;-102.718;2023-05-14T09:21:57;21.90;55.10
28374;DHT22;15616;40.148;-102.718;2023-05-14T09:24:24;21.90;55.10
28374;DHT22;15616;40.148;-102.718;2023-05-14T09:26:54;21.90;55.20
28374;DHT22;15616;40.148;-102.718;2023-05-14T09:29:22;21.90;55.20
28374;DHT22;15616;40.148;-102.718;2023-05-14T09:31:51;21.90;55.10
28374;DHT22;15616;40.148;-102.718;2023-05-14T09:34:23;22.00;55.20
28374;DHT22;15616;40.148;-102.718;2023-05-14T09:36:59;22.00;55.10
28374;DHT22;15616;40.148;-102.718;2023-05-14T09:39:25;22.00;55.10
28374;DHT22;15616;40.148;-102.718;2023-05-14T09:41:52;22.00;55.10
28374;DHT22;15616;40.148;-102.718;2023-05-14T09:44:18;22.00;55.10
28374;DHT22;15616;40.148;-102.718;2023-05-14T09:46:44;22.00;55.10
28374;DHT22;15616;40.148;-102.718;2023-05-14T09:49:10;22.00;55.10
28374;DHT22;15616;40.148;-102.718;2023-05-14T09:51:36;22.00;55.10
28374;DHT22;15616;40.148;-102.718;2023-05-14T09:54:03;22.00;55.10
28374;DHT22;15616;40.148;-102.718;2023-05-14T09:56:28;22.00;55.00
28374;DHT22;15616;40.148;-102.718;2023-05-14T09:58:55;22.00;55.00
28374;DHT22;15616;40.148;-102.718;2023-05-14T10:01:20;22.00;55.00
28374;DHT22;15616;40.148;-102.718;2023-05-14T10:03:47;22.00;55.00
28374;DHT22;15616;40.148;-102.718;2023-05-14T10:06:13;22.00;55.00
28374;DHT22;15616;40.148;-102.718;2023-05-14T10:08:42;22.00;55.00
28374;DHT22;15616;40.148;-102.718;2023-05-14T10:11:12;22.00;55.00
28374;DHT22;15616;40.148;-102.718;2023-05-14T10:13:38;22.10;55.10
28374;DHT22;15616;40.148;-102.718;2023-05-14T10:18:39;22.10;55.10
28374;DHT22;15616;40.148;-102.718;2023-05-14T10:21:05;22.10;55.00
28374;DHT22;15616;40.148;-102.718;2023-05-14T10:23:35;22.10;55.00
28374;DHT22;15616;40.148;-102.718;2023-05-14T10:26:02;22.10;55.10
28374;DHT22;15616;40.148;-102.718;2023-05-14T10:28:28;22.10;55.00
28374;DHT22;15616;40.148;-102.718;2023-05-14T10:30:55;22.10;55.10
28374;DHT22;15616;40.148;-102.718;2023-05-14T10:33:21;22.10;55.00
28374;DHT22;15616;40.148;-102.718;2023-05-14T10:36:05;22.10;55.00
28374;DHT22;15616;40.148;-102.718;2023-05-14T10:38:32;22.10;55.00
28374;DHT22;15616;40.148;-102.718;2023-05-14T10:41:01;22.20;55.10
28374;DHT22;15616;40.148;-102.718;2023-05-14T10:43:28;22.20;55.10
28374;DHT22;15616;40.148;-102.718;2023-05-14T10:45:55;22.20;55.00
28374;DHT22;15616;40.148;-102.718;2023-05-14T10:48:21;22.20;55.00
28374;DHT22;15616;40.148;-102.718;2023-05-14T10:50:49;22.20;55.00
28374;DHT22;15616;40.148;-102.718;2023-05-14T10:53:15;22.20;54.90
28374;DHT22;15616;40.148;-102.718;2023-05-14T10:55:41;22.20;55.70
28374;DHT22;15616;40.148;-102.718;2023-05-14T10:58:08;22.20;54.90
28374;DHT22;15616;40.148;-102.718;2023-05-14T11:00:34;22.20;54.90
28374;DHT22;15616;40.148;-102.718;2023-05-14T11:03:02;22.20;54.90
28374;DHT22;15616;40.148;-102.718;2023-05-14T11:05:28;22.20;54.90
28374;DHT22;15616;40.148;-102.718;2023-05-14T11:07:54;22.20;54.90
28374;DHT22;15616;40.148;-102.718;2023-05-14T11:10:21;22.20;54.90
28374;DHT22;15616;40.148;-102.718;2023-05-14T11:12:49;22.20;54.90
28374;DHT22;15616;40.148;-102.718;2023-05-14T11:15:16;22.20;54.90
28374;DHT22;15616;40.148;-102.718;2023-05-14T11:17:43;22.20;54.90
28374;DHT22;15616;40.148;-102.718;2023-05-14T11:20:09;22.20;54.90
28374;DHT22;15616;40.148;-102.718;2023-05-14T11:22:36;22.20;54.90
28374;DHT22;15616;40.148;-102.718;2023-05-14T11:25:02;22.20;54.90
28374;DHT22;15616;40.148;-102.718;2023-05-14T11:27:28;22.30;54.90
28374;DHT22;15616;40.148;-102.718;2023-05-14T11:29:53;22.20;54.90
28374;DHT22;15616;40.148;-102.718;2023-05-14T11:32:20;22.30;54.90
28374;DHT22;15616;40.148;-102.718;2023-05-14T11:34:46;22.30;54.90
28374;DHT22;15616;40.148;-102.718;2023-05-14T11:37:13;22.30;54.90
28374;DHT22;15616;40.148;-102.718;2023-05-14T11:39:44;22.30;54.80
28374;DHT22;15616;40.148;-102.718;2023-05-14T11:42:10;22.30;54.90
28374;DHT22;15616;40.148;-102.718;2023-05-14T11:44:39;22.30;54.90
28374;DHT22;15616;40.148;-102.718;2023-05-14T11:47:06;22.30;54.90
28374;DHT22;15616;40.148;-102.718;2023-05-14T11:49:31;22.30;54.80
28374;DHT22;15616;40.148;-102.718;2023-05-14T11:52:00;22.30;54.80
28374;DHT22;15616;40.148;-102.718;2023-05-14T11:54:28;22.30;54.80
28374;DHT22;15616;40.148;-102.718;2023-05-14T11:56:55;22.30;54.80
28374;DHT22;15616;40.148;-102.718;2023-05-14T11:59:24;22.30;54.80
28374;DHT22;15616;40.148;-102.718;2023-05-14T12:01:51;22.30;54.80
28374;DHT22;15616;40.148;-102.718;2023-05-14T12:04:18;22.30;54.90
28374;DHT22;15616;40.148;-102.718;2023-05-14T12:06:50;22.30;54.80
28374;DHT22;15616;40.148;-102.718;2023-05-14T12:09:16;22.30;54.80
28374;DHT22;15616;40.148;-102.718;2023-05-14T12:11:42;22.30;54.80
28374;DHT22;15616;40.148;-102.718;2023-05-14T12:14:09;22.30;54.80
28374;DHT22;15616;40.148;-102.718;2023-05-14T12:16:35;22.40;54.80
28374;DHT22;15616;40.148;-102.718;2023-05-14T12:19:01;22.40;54.80
28374;DHT22;15616;40.148;-102.718;2023-05-14T12:21:27;22.30;54.70
28374;DHT22;15616;40.148;-102.718;2023-05-14T12:23:59;22.40;54.80
28374;DHT22;15616;40.148;-102.718;2023-05-14T12:26:25;22.40;54.70
28374;DHT22;15616;40.148;-102.718;2023-05-14T12:29:00;22.40;54.70
28374;DHT22;15616;40.148;-102.718;2023-05-14T12:31:27;22.40;54.70
28374;DHT22;15616;40.148;-102.718;2023-05-14T12:33:52;22.40;54.70
28374;DHT22;15616;40.148;-102.718;2023-05-14T12:36:18;22.40;54.70
28374;DHT22;15616;40.148;-102.718;2023-05-14T12:38:43;22.40;54.60
28374;DHT22;15616;40.148;-102.718;2023-05-14T12:41:09;22.40;54.60
28374;DHT22;15616;40.148;-102.718;2023-05-14T12:43:35;22.40;54.60
28374;DHT22;15616;40.148;-102.718;2023-05-14T12:46:00;22.50;54.70
28374;DHT22;15616;40.148;-102.718;2023-05-14T12:48:26;22.50;54.60
28374;DHT22;15616;40.148;-102.718;2023-05-14T12:50:52;22.50;54.60
28374;DHT22;15616;40.148;-102.718;2023-05-14T12:53:17;22.50;54.60
28374;DHT22;15616;40.148;-102.718;2023-05-14T12:55:43;22.50;54.50
28374;DHT22;15616;40.148;-102.718;2023-05-14T12:58:09;22.50;54.50
28374;DHT22;15616;40.148;-102.718;2023-05-14T13:00:35;22.50;54.50
28374;DHT22;15616;40.148;-102.718;2023-05-14T13:03:00;22.50;54.50
28374;DHT22;15616;40.148;-102.718;2023-05-14T13:05:26;22.50;54.50
28374;DHT22;15616;40.148;-102.718;2023-05-14T13:07:52;22.50;54.50
28374;DHT22;15616;40.148;-102.718;2023-05-14T13:10:18;22.50;54.50
28374;DHT22;15616;40.148;-102.718;2023-05-14T13:12:43;22.50;54.50
28374;DHT22;15616;40.148;-102.718;2023-05-14T13:15:09;22.50;54.50
28374;DHT22;15616;40.148;-102.718;2023-05-14T13:17:35;22.50;54.50
28374;DHT22;15616;40.148;-102.718;2023-05-14T13:20:01;22.50;54.50
28374;DHT22;15616;40.148;-102.718;2023-05-14T13:22:27;22.50;54.40
28374;DHT22;15616;40.148;-102.718;2023-05-14T13:24:52;22.50;54.40
28374;DHT22;15616;40.148;-102.718;2023-05-14T13:27:18;22.60;54.40
28374;DHT22;15616;40.148;-102.718;2023-05-14T13:29:44;22.50;54.40
28374;DHT22;15616;40.148;-102.718;2023-05-14T13:32:09;22.60;54.40
28374;DHT22;15616;40.148;-102.718;2023-05-14T13:34:35;22.60;54.40
28374;DHT22;15616;40.148;-102.718;2023-05-14T13:37:01;22.60;54.30
28374;DHT22;15616;40.148;-102.718;2023-05-14T13:39:27;22.60;54.30
28374;DHT22;15616;40.148;-102.718;2023-05-14T13:41:53;22.60;54.30
28374;DHT22;15616;40.148;-102.718;2023-05-14T13:44:21;22.60;54.20
28374;DHT22;15616;40.148;-102.718;2023-05-14T13:46:46;22.60;54.20
28374;DHT22;15616;40.148;-102.718;2023-05-14T13:49:12;22.70;54.20
28374;DHT22;15616;40.148;-102.718;2023-05-14T13:51:38;22.70;54.20
28374;DHT22;15616;40.148;-102.718;2023-05-14T13:54:04;22.60;54.10
28374;DHT22;15616;40.148;-102.718;2023-05-14T13:56:30;22.70;54.20
28374;DHT22;15616;40.148;-102.718;2023-05-14T13:58:55;22.70;54.20
28374;DHT22;15616;40.148;-102.718;2023-05-14T14:01:21;22.70;54.20
28374;DHT22;15616;40.148;-102.718;2023-05-14T14:03:47;22.70;54.20
28374;DHT22;15616;40.148;-102.718;2023-05-14T14:06:13;22.70;54.10
28374;DHT22;15616;40.148;-102.718;2023-05-14T14:08:39;22.70;54.10
28374;DHT22;15616;40.148;-102.718;2023-05-14T14:11:04;22.70;54.10
28374;DHT22;15616;40.148;-102.718;2023-05-14T14:13:30;22.70;54.10
28374;DHT22;15616;40.148;-102.718;2023-05-14T14:15:56;22.70;54.10
28374;DHT22;15616;40.148;-102.718;2023-05-14T14:18:21;22.70;54.10
28374;DHT22;15616;40.148;-102.718;2023-05-14T14:20:47;22.70;54.10
28374;DHT22;15616;40.148;-102.718;2023-05-14T14:23:13;22.70;54.10
28374;DHT22;15616;40.148;-102.718;2023-05-14T14:25:38;22.70;54.10
28374;DHT22;15616;40.148;-102.718;2023-05-14T14:28:04;22.80;54.10
28374;DHT22;15616;40.148;-102.718;2023-05-14T14:30:30;22.80;54.00
28374;DHT22;15616;40.148;-102.718;2023-05-14T14:32:56;22.80;54.00
28374;DHT22;15616;40.148;-102.718;2023-05-14T14:35:22;22.80;54.00
28374;DHT22;15616;40.148;-102.718;2023-05-14T14:37:47;22.80;53.90
28374;DHT22;15616;40.148;-102.718;2023-05-14T14:40:15;22.80;54.50
28374;DHT22;15616;40.148;-102.718;2023-05-14T14:42:41;22.80;53.80
28374;DHT22;15616;40.148;-102.718;2023-05-14T14:45:07;22.90;53.80
28374;DHT22;15616;40.148;-102.718;2023-05-14T14:47:34;22.80;53.70
28374;DHT22;15616;40.148;-102.718;2023-05-14T14:50:00;22.90;53.70
28374;DHT22;15616;40.148;-102.718;2023-05-14T14:52:26;22.90;53.70
28374;DHT22;15616;40.148;-102.718;2023-05-14T14:54:52;22.90;53.70
28374;DHT22;15616;40.148;-102.718;2023-05-14T14:57:18;22.90;53.70